sensor_id;sensor_type;location;lat;lon;timestamp;temperature;humidity
12811;DHT22;6470;47.654;7.896;2023-06-14T00:00:13;16.40;84.10
12811;DHT22;6470;47.654;7.896;2023-06-14T00:02:40;16.40;86.20
12811;DHT22;6470;47.654;7.896;2023-06-14T00:05:07;16.30;86.30
12811;DHT22;6470;47.654;7.896;2023-06-14T00:07:39;15.80;88.70
12811;DHT22;6470;47.654;7.896;2023-06-14T00:10:09;16.30;87.60
12811;DHT22;6470;47.654;7.896;2023-06-14T00:12:35;15.40;89.40
12811;DHT22;6470;47.654;7.896;2023-06-14T00:15:02;15.70;90.70
12811;DHT22;6470;47.654;7.896;2023-06-14T00:17:28;12.60;87.30
12811;DHT22;6470;47.654;7.896;2023-06-14T00:20:00;15.60;90.60
12811;DHT22;6470;47.654;7.896;2023-06-14T00:22:25;15.30;90.50
12811;DHT22;6470;47.654;7.896;2023-06-14T00:24:54;15.60;91.80
12811;DHT22;6470;47.654;7.896;2023-06-14T00:27:19;15.30;91.90
12811;DHT22;6470;47.654;7.896;2023-06-14T00:29:45;16.10;93.00
12811;DHT22;6470;47.654;7.896;2023-06-14T00:32:11;15.80;92.80
12811;DHT22;6470;47.654;7.896;2023-06-14T00:37:03;15.90;92.90
12811;DHT22;6470;47.654;7.896;2023-06-14T00:39:29;15.50;93.50
12811;DHT22;6470;47.654;7.896;2023-06-14T00:46:47;16.10;94.50
12811;DHT22;6470;47.654;7.896;2023-06-14T00:49:16;15.30;93.30
12811;DHT22;6470;47.654;7.896;2023-06-14T00:51:42;15.60;93.90
12811;DHT22;6470;47.654;7.896;2023-06-14T00:54:08;15.20;92.90
12811;DHT22;6470;47.654;7.896;2023-06-14T00:56:36;15.60;93.30
12811;DHT22;6470;47.654;7.896;2023-06-14T00:59:02;15.60;93.30
12811;DHT22;6470;47.654;7.896;2023-06-14T01:01:29;15.70;93.90
12811;DHT22;6470;47.654;7.896;2023-06-14T01:03:58;11.60;92.10
12811;DHT22;6470;47.654;7.896;2023-06-14T01:09:15;16.20;92.60
12811;DHT22;6470;47.654;7.896;2023-06-14T01:11:54;15.70;92.40
12811;DHT22;6470;47.654;7.896;2023-06-14T01:14:25;15.60;93.60
12811;DHT22;6470;47.654;7.896;2023-06-14T01:16:51;14.10;92.50
12811;DHT22;6470;47.654;7.896;2023-06-14T01:19:19;14.10;92.40
12811;DHT22;6470;47.654;7.896;2023-06-14T01:21:48;15.70;94.10
12811;DHT22;6470;47.654;7.896;2023-06-14T01:24:16;16.20;94.50
12811;DHT22;6470;47.654;7.896;2023-06-14T01:26:45;15.90;94.00
12811;DHT22;6470;47.654;7.896;2023-06-14T01:29:13;15.80;95.40
12811;DHT22;6470;47.654;7.896;2023-06-14T01:31:43;13.90;94.60
12811;DHT22;6470;47.654;7.896;2023-06-14T01:34:09;15.80;94.70
12811;DHT22;6470;47.654;7.896;2023-06-14T01:36:36;15.20;94.90
12811;DHT22;6470;47.654;7.896;2023-06-14T01:39:06;15.50;95.40
12811;DHT22;6470;47.654;7.896;2023-06-14T01:41:32;15.60;95.50
12811;DHT22;6470;47.654;7.896;2023-06-14T01:46:25;15.00;96.70
12811;DHT22;6470;47.654;7.896;2023-06-14T01:51:17;15.60;96.80
12811;DHT22;6470;47.654;7.896;2023-06-14T01:53:43;14.90;96.10
12811;DHT22;6470;47.654;7.896;2023-06-14T01:56:08;15.50;97.00
12811;DHT22;6470;47.654;7.896;2023-06-14T01:58:34;15.60;96.90
12811;DHT22;6470;47.654;7.896;2023-06-14T02:03:27;15.40;98.20
12811;DHT22;6470;47.654;7.896;2023-06-14T02:05:53;15.10;98.70
12811;DHT22;6470;47.654;7.896;2023-06-14T02:08:20;15.40;99.40
12811;DHT22;6470;47.654;7.896;2023-06-14T02:15:38;15.60;99.40
12811;DHT22;6470;47.654;7.896;2023-06-14T02:18:04;12.50;98.20
12811;DHT22;6470;47.654;7.896;2023-06-14T02:20:30;15.30;98.80
12811;DHT22;6470;47.654;7.896;2023-06-14T02:22:57;15.20;99.50
12811;DHT22;6470;47.654;7.896;2023-06-14T02:25:23;15.40;99.90
12811;DHT22;6470;47.654;7.896;2023-06-14T02:27:49;14.80;99.70
12811;DHT22;6470;47.654;7.896;2023-06-14T02:30:15;15.20;99.90
12811;DHT22;6470;47.654;7.896;2023-06-14T02:32:41;15.50;99.90
12811;DHT22;6470;47.654;7.896;2023-06-14T02:35:08;15.70;99.90
12811;DHT22;6470;47.654;7.896;2023-06-14T02:37:34;12.20;99.90
12811;DHT22;6470;47.654;7.896;2023-06-14T02:40:00;12.50;99.90
12811;DHT22;6470;47.654;7.896;2023-06-14T02:42:26;15.40;99.90
12811;DHT22;6470;47.654;7.896;2023-06-14T02:44:51;12.10;99.90
12811;DHT22;6470;47.654;7.896;2023-06-14T02:47:18;11.70;99.90
12811;DHT22;6470;47.654;7.896;2023-06-14T02:49:44;12.40;99.90
12811;DHT22;6470;47.654;7.896;2023-06-14T02:52:12;11.60;99.90
12811;DHT22;6470;47.654;7.896;2023-06-14T02:57:04;12.20;99.90
12811;DHT22;6470;47.654;7.896;2023-06-14T03:01:55;12.20;99.90
12811;DHT22;6470;47.654;7.896;2023-06-14T03:04:21;11.90;99.90
12811;DHT22;6470;47.654;7.896;2023-06-14T03:06:47;10.00;99.90
12811;DHT22;6470;47.654;7.896;2023-06-14T03:09:16;12.30;99.90
12811;DHT22;6470;47.654;7.896;2023-06-14T03:11:41;11.60;99.90
12811;DHT22;6470;47.654;7.896;2023-06-14T03:14:07;11.80;99.90
12811;DHT22;6470;47.654;7.896;2023-06-14T03:16:34;11.50;99.90
12811;DHT22;6470;47.654;7.896;2023-06-14T03:19:00;12.40;99.90
12811;DHT22;6470;47.654;7.896;2023-06-14T03:21:26;12.00;99.90
12811;DHT22;6470;47.654;7.896;2023-06-14T03:23:52;10.30;99.90
12811;DHT22;6470;47.654;7.896;2023-06-14T03:26:18;10.10;99.90
12811;DHT22;6470;47.654;7.896;2023-06-14T03:28:45;10.20;99.90
12811;DHT22;6470;47.654;7.896;2023-06-14T03:31:12;10.50;99.90
12811;DHT22;6470;47.654;7.896;2023-06-14T03:33:38;10.30;99.90
12811;DHT22;6470;47.654;7.896;2023-06-14T03:36:05;10.30;99.90
12811;DHT22;6470;47.654;7.896;2023-06-14T03:38:32;10.60;99.90
12811;DHT22;6470;47.654;7.896;2023-06-14T03:40:58;9.90;99.90
12811;DHT22;6470;47.654;7.896;2023-06-14T03:43:23;10.70;99.90
12811;DHT22;6470;47.654;7.896;2023-06-14T03:48:16;9.30;99.90
12811;DHT22;6470;47.654;7.896;2023-06-14T03:53:08;9.30;99.90
12811;DHT22;6470;47.654;7.896;2023-06-14T03:58:00;9.20;99.90
12811;DHT22;6470;47.654;7.896;2023-06-14T04:00:26;9.70;99.90
12811;DHT22;6470;47.654;7.896;2023-06-14T04:05:19;10.60;99.90
12811;DHT22;6470;47.654;7.896;2023-06-14T04:07:47;10.60;99.90
12811;DHT22;6470;47.654;7.896;2023-06-14T04:10:15;10.70;99.90
12811;DHT22;6470;47.654;7.896;2023-06-14T04:12:41;9.60;99.90
12811;DHT22;6470;47.654;7.896;2023-06-14T04:15:07;9.50;99.90
12811;DHT22;6470;47.654;7.896;2023-06-14T04:17:37;10.30;99.90
12811;DHT22;6470;47.654;7.896;2023-06-14T04:20:04;9.40;99.90
12811;DHT22;6470;47.654;7.896;2023-06-14T04:24:57;9.70;99.90
12811;DHT22;6470;47.654;7.896;2023-06-14T04:27:24;10.40;99.90
12811;DHT22;6470;47.654;7.896;2023-06-14T04:29:54;9.90;99.90
12811;DHT22;6470;47.654;7.896;2023-06-14T04:32:25;10.20;99.90
12811;DHT22;6470;47.654;7.896;2023-06-14T04:34:57;10.60;99.90
12811;DHT22;6470;47.654;7.896;2023-06-14T04:37:24;11.10;99.90
12811;DHT22;6470;47.654;7.896;2023-06-14T04:39:54;9.70;99.90
12811;DHT22;6470;47.654;7.896;2023-06-14T04:42:21;10.50;99.90
12811;DHT22;6470;47.654;7.896;2023-06-14T04:44:51;10.10;99.90
12811;DHT22;6470;47.654;7.896;2023-06-14T04:47:20;9.90;99.90
12811;DHT22;6470;47.654;7.896;2023-06-14T04:49:46;10.20;99.90
12811;DHT22;6470;47.654;7.896;2023-06-14T04:52:13;11.30;99.90
12811;DHT22;6470;47.654;7.896;2023-06-14T04:57:10;12.40;99.90
12811;DHT22;6470;47.654;7.896;2023-06-14T04:59:39;12.50;99.90
12811;DHT22;6470;47.654;7.896;2023-06-14T05:06:59;15.40;99.90
12811;DHT22;6470;47.654;7.896;2023-06-14T05:14:17;13.10;99.90
12811;DHT22;6470;47.654;7.896;2023-06-14T05:16:43;15.70;99.90
12811;DHT22;6470;47.654;7.896;2023-06-14T05:19:09;15.10;99.90
12811;DHT22;6470;47.654;7.896;2023-06-14T05:21:36;13.50;99.90
12811;DHT22;6470;47.654;7.896;2023-06-14T05:24:03;15.60;99.90
12811;DHT22;6470;47.654;7.896;2023-06-14T05:26:28;16.00;99.90
12811;DHT22;6470;47.654;7.896;2023-06-14T05:28:58;16.10;99.90
12811;DHT22;6470;47.654;7.896;2023-06-14T05:31:26;16.20;99.90
12811;DHT22;6470;47.654;7.896;2023-06-14T05:33:52;16.30;99.90
12811;DHT22;6470;47.654;7.896;2023-06-14T05:36:19;15.50;99.90
12811;DHT22;6470;47.654;7.896;2023-06-14T05:38:45;14.70;99.90
12811;DHT22;6470;47.654;7.896;2023-06-14T05:43:37;12.30;99.90
12811;DHT22;6470;47.654;7.896;2023-06-14T05:46:03;15.60;99.90
12811;DHT22;6470;47.654;7.896;2023-06-14T05:48:30;16.00;99.90
12811;DHT22;6470;47.654;7.896;2023-06-14T05:50:56;15.30;99.90
12811;DHT22;6470;47.654;7.896;2023-06-14T05:53:21;15.60;99.90
12811;DHT22;6470;47.654;7.896;2023-06-14T05:55:47;13.40;99.90
12811;DHT22;6470;47.654;7.896;2023-06-14T05:58:13;16.20;99.90
12811;DHT22;6470;47.654;7.896;2023-06-14T06:00:39;16.40;99.90
12811;DHT22;6470;47.654;7.896;2023-06-14T06:03:05;17.10;99.90
12811;DHT22;6470;47.654;7.896;2023-06-14T06:05:33;17.00;99.90
12811;DHT22;6470;47.654;7.896;2023-06-14T06:07:59;17.20;99.90
12811;DHT22;6470;47.654;7.896;2023-06-14T06:10:25;16.90;99.90
12811;DHT22;6470;47.654;7.896;2023-06-14T06:15:19;17.20;99.90
12811;DHT22;6470;47.654;7.896;2023-06-14T06:17:46;14.40;99.90
12811;DHT22;6470;47.654;7.896;2023-06-14T06:20:12;17.70;99.90
12811;DHT22;6470;47.654;7.896;2023-06-14T06:22:38;17.60;99.90
12811;DHT22;6470;47.654;7.896;2023-06-14T06:25:05;18.00;99.90
12811;DHT22;6470;47.654;7.896;2023-06-14T06:27:32;17.20;99.90
12811;DHT22;6470;47.654;7.896;2023-06-14T06:29:57;17.80;99.90
12811;DHT22;6470;47.654;7.896;2023-06-14T06:32:23;17.90;99.90
12811;DHT22;6470;47.654;7.896;2023-06-14T06:34:49;18.70;99.90
12811;DHT22;6470;47.654;7.896;2023-06-14T06:37:15;18.80;99.90
12811;DHT22;6470;47.654;7.896;2023-06-14T06:39:41;18.70;99.90
12811;DHT22;6470;47.654;7.896;2023-06-14T06:42:07;18.30;99.90
12811;DHT22;6470;47.654;7.896;2023-06-14T06:44:33;19.00;99.90
12811;DHT22;6470;47.654;7.896;2023-06-14T06:46:58;18.90;99.90
12811;DHT22;6470;47.654;7.896;2023-06-14T06:49:24;18.60;99.90
12811;DHT22;6470;47.654;7.896;2023-06-14T06:52:06;20.30;99.90
12811;DHT22;6470;47.654;7.896;2023-06-14T06:54:33;20.30;99.90
12811;DHT22;6470;47.654;7.896;2023-06-14T06:56:59;21.60;98.90
12811;DHT22;6470;47.654;7.896;2023-06-14T06:59:25;20.70;99.20
12811;DHT22;6470;47.654;7.896;2023-06-14T07:01:51;21.50;97.80
12811;DHT22;6470;47.654;7.896;2023-06-14T07:06:43;21.30;97.10
12811;DHT22;6470;47.654;7.896;2023-06-14T07:09:09;20.60;97.30
12811;DHT22;6470;47.654;7.896;2023-06-14T07:11:40;20.50;97.10
12811;DHT22;6470;47.654;7.896;2023-06-14T07:14:06;20.20;97.90
12811;DHT22;6470;47.654;7.896;2023-06-14T07:16:32;21.20;98.10
12811;DHT22;6470;47.654;7.896;2023-06-14T07:18:58;20.80;98.10
12811;DHT22;6470;47.654;7.896;2023-06-14T07:21:24;20.70;97.70
12811;DHT22;6470;47.654;7.896;2023-06-14T07:23:52;21.50;99.20
12811;DHT22;6470;47.654;7.896;2023-06-14T07:26:18;21.60;99.30
12811;DHT22;6470;47.654;7.896;2023-06-14T07:28:44;22.20;98.30
12811;DHT22;6470;47.654;7.896;2023-06-14T07:31:12;19.50;97.30
12811;DHT22;6470;47.654;7.896;2023-06-14T07:33:38;22.00;98.20
12811;DHT22;6470;47.654;7.896;2023-06-14T07:36:04;22.00;98.50
12811;DHT22;6470;47.654;7.896;2023-06-14T07:38:30;22.50;98.80
12811;DHT22;6470;47.654;7.896;2023-06-14T07:40:55;21.80;97.70
12811;DHT22;6470;47.654;7.896;2023-06-14T07:43:21;22.00;98.00
12811;DHT22;6470;47.654;7.896;2023-06-14T07:45:47;22.20;97.80
12811;DHT22;6470;47.654;7.896;2023-06-14T07:48:12;22.20;98.00
12811;DHT22;6470;47.654;7.896;2023-06-14T07:50:38;22.70;98.00
12811;DHT22;6470;47.654;7.896;2023-06-14T07:53:04;22.30;97.20
12811;DHT22;6470;47.654;7.896;2023-06-14T07:57:58;21.70;96.10
12811;DHT22;6470;47.654;7.896;2023-06-14T08:00:24;22.40;96.50
12811;DHT22;6470;47.654;7.896;2023-06-14T08:02:49;23.00;97.40
12811;DHT22;6470;47.654;7.896;2023-06-14T08:05:17;23.60;97.80
12811;DHT22;6470;47.654;7.896;2023-06-14T08:07:43;22.90;98.00
12811;DHT22;6470;47.654;7.896;2023-06-14T08:10:09;23.40;97.00
12811;DHT22;6470;47.654;7.896;2023-06-14T08:12:36;22.90;95.90
12811;DHT22;6470;47.654;7.896;2023-06-14T08:17:28;23.20;97.10
12811;DHT22;6470;47.654;7.896;2023-06-14T08:19:54;23.30;95.90
12811;DHT22;6470;47.654;7.896;2023-06-14T08:22:22;24.00;96.30
12811;DHT22;6470;47.654;7.896;2023-06-14T08:24:50;23.30;94.40
12811;DHT22;6470;47.654;7.896;2023-06-14T08:27:16;25.00;96.30
12811;DHT22;6470;47.654;7.896;2023-06-14T08:29:41;25.10;95.10
12811;DHT22;6470;47.654;7.896;2023-06-14T08:32:07;24.90;95.00
12811;DHT22;6470;47.654;7.896;2023-06-14T08:34:33;25.90;94.20
12811;DHT22;6470;47.654;7.896;2023-06-14T08:36:59;24.50;94.70
12811;DHT22;6470;47.654;7.896;2023-06-14T08:39:24;24.60;92.60
12811;DHT22;6470;47.654;7.896;2023-06-14T08:41:52;25.70;93.10
12811;DHT22;6470;47.654;7.896;2023-06-14T08:44:18;24.60;92.00
12811;DHT22;6470;47.654;7.896;2023-06-14T08:46:44;25.10;92.10
12811;DHT22;6470;47.654;7.896;2023-06-14T08:49:16;25.10;90.80
12811;DHT22;6470;47.654;7.896;2023-06-14T08:51:43;25.40;89.40
12811;DHT22;6470;47.654;7.896;2023-06-14T08:54:10;24.90;85.60
12811;DHT22;6470;47.654;7.896;2023-06-14T08:56:38;25.60;81.10
12811;DHT22;6470;47.654;7.896;2023-06-14T08:59:04;25.80;76.40
12811;DHT22;6470;47.654;7.896;2023-06-14T09:01:36;25.20;79.70
12811;DHT22;6470;47.654;7.896;2023-06-14T09:04:02;25.50;80.50
12811;DHT22;6470;47.654;7.896;2023-06-14T09:06:28;25.80;78.50
12811;DHT22;6470;47.654;7.896;2023-06-14T09:08:55;25.90;76.70
12811;DHT22;6470;47.654;7.896;2023-06-14T09:11:24;23.20;73.80
12811;DHT22;6470;47.654;7.896;2023-06-14T09:13:52;25.80;72.90
12811;DHT22;6470;47.654;7.896;2023-06-14T09:16:18;26.60;74.80
12811;DHT22;6470;47.654;7.896;2023-06-14T09:18:45;26.80;71.40
12811;DHT22;6470;47.654;7.896;2023-06-14T09:21:14;25.80;71.20
12811;DHT22;6470;47.654;7.896;2023-06-14T09:23:41;25.60;71.10
12811;DHT22;6470;47.654;7.896;2023-06-14T09:26:11;26.00;73.80
12811;DHT22;6470;47.654;7.896;2023-06-14T09:28:47;26.20;74.10
12811;DHT22;6470;47.654;7.896;2023-06-14T09:31:15;26.40;74.00
12811;DHT22;6470;47.654;7.896;2023-06-14T09:33:42;26.60;70.50
12811;DHT22;6470;47.654;7.896;2023-06-14T09:36:21;27.60;71.00
12811;DHT22;6470;47.654;7.896;2023-06-14T09:39:02;26.70;69.60
12811;DHT22;6470;47.654;7.896;2023-06-14T09:44:02;26.80;67.40
12811;DHT22;6470;47.654;7.896;2023-06-14T09:46:29;27.20;68.00
12811;DHT22;6470;47.654;7.896;2023-06-14T09:48:56;26.80;69.40
12811;DHT22;6470;47.654;7.896;2023-06-14T09:51:22;27.00;70.30
12811;DHT22;6470;47.654;7.896;2023-06-14T09:53:49;26.80;68.60
12811;DHT22;6470;47.654;7.896;2023-06-14T09:56:42;27.90;68.30
12811;DHT22;6470;47.654;7.896;2023-06-14T09:59:10;26.90;67.40
12811;DHT22;6470;47.654;7.896;2023-06-14T10:01:42;28.00;68.10
12811;DHT22;6470;47.654;7.896;2023-06-14T10:04:09;25.30;65.90
12811;DHT22;6470;47.654;7.896;2023-06-14T10:06:37;28.10;65.80
12811;DHT22;6470;47.654;7.896;2023-06-14T10:09:04;27.30;67.50
12811;DHT22;6470;47.654;7.896;2023-06-14T10:11:34;26.80;67.40
12811;DHT22;6470;47.654;7.896;2023-06-14T10:14:02;26.20;67.50
12811;DHT22;6470;47.654;7.896;2023-06-14T10:16:36;26.80;67.50
12811;DHT22;6470;47.654;7.896;2023-06-14T10:19:21;27.20;69.10
12811;DHT22;6470;47.654;7.896;2023-06-14T10:22:08;27.30;68.70
12811;DHT22;6470;47.654;7.896;2023-06-14T10:24:42;27.50;69.50
12811;DHT22;6470;47.654;7.896;2023-06-14T10:27:09;26.60;65.40
12811;DHT22;6470;47.654;7.896;2023-06-14T10:32:18;27.20;69.60
12811;DHT22;6470;47.654;7.896;2023-06-14T10:34:44;28.00;69.00
12811;DHT22;6470;47.654;7.896;2023-06-14T10:37:14;27.80;69.10
12811;DHT22;6470;47.654;7.896;2023-06-14T10:39:43;27.60;64.20
12811;DHT22;6470;47.654;7.896;2023-06-14T10:42:13;27.30;64.60
12811;DHT22;6470;47.654;7.896;2023-06-14T10:44:41;27.40;64.80
12811;DHT22;6470;47.654;7.896;2023-06-14T10:49:44;27.70;66.60
12811;DHT22;6470;47.654;7.896;2023-06-14T10:55:11;28.80;68.80
12811;DHT22;6470;47.654;7.896;2023-06-14T11:00:20;28.20;72.70
12811;DHT22;6470;47.654;7.896;2023-06-14T11:05:54;29.80;73.70
12811;DHT22;6470;47.654;7.896;2023-06-14T11:11:11;29.70;68.10
12811;DHT22;6470;47.654;7.896;2023-06-14T11:13:39;28.30;69.20
12811;DHT22;6470;47.654;7.896;2023-06-14T11:16:16;29.10;70.10
12811;DHT22;6470;47.654;7.896;2023-06-14T11:18:43;28.70;69.30
12811;DHT22;6470;47.654;7.896;2023-06-14T11:21:09;28.30;71.10
12811;DHT22;6470;47.654;7.896;2023-06-14T11:23:35;28.90;73.00
12811;DHT22;6470;47.654;7.896;2023-06-14T11:26:01;29.40;67.30
12811;DHT22;6470;47.654;7.896;2023-06-14T11:28:40;29.20;67.50
12811;DHT22;6470;47.654;7.896;2023-06-14T11:31:07;29.00;68.60
12811;DHT22;6470;47.654;7.896;2023-06-14T11:33:33;29.80;69.50
12811;DHT22;6470;47.654;7.896;2023-06-14T11:36:02;30.10;70.50
12811;DHT22;6470;47.654;7.896;2023-06-14T11:38:28;29.50;66.20
12811;DHT22;6470;47.654;7.896;2023-06-14T11:40:58;30.10;67.10
12811;DHT22;6470;47.654;7.896;2023-06-14T11:43:25;30.30;66.70
12811;DHT22;6470;47.654;7.896;2023-06-14T11:45:52;30.50;66.70
12811;DHT22;6470;47.654;7.896;2023-06-14T11:48:18;30.10;67.00
12811;DHT22;6470;47.654;7.896;2023-06-14T11:50:44;29.80;65.10
12811;DHT22;6470;47.654;7.896;2023-06-14T11:53:10;30.30;63.90
12811;DHT22;6470;47.654;7.896;2023-06-14T11:55:37;28.70;65.60
12811;DHT22;6470;47.654;7.896;2023-06-14T11:58:03;28.60;64.40
12811;DHT22;6470;47.654;7.896;2023-06-14T12:00:30;30.20;65.10
12811;DHT22;6470;47.654;7.896;2023-06-14T12:02:56;29.80;64.70
12811;DHT22;6470;47.654;7.896;2023-06-14T12:05:23;31.10;65.80
12811;DHT22;6470;47.654;7.896;2023-06-14T12:07:49;30.20;63.60
12811;DHT22;6470;47.654;7.896;2023-06-14T12:10:16;30.60;64.40
12811;DHT22;6470;47.654;7.896;2023-06-14T12:12:42;30.30;64.20
12811;DHT22;6470;47.654;7.896;2023-06-14T12:15:09;30.50;64.90
12811;DHT22;6470;47.654;7.896;2023-06-14T12:17:37;29.70;63.90
12811;DHT22;6470;47.654;7.896;2023-06-14T12:20:12;29.80;64.10
12811;DHT22;6470;47.654;7.896;2023-06-14T12:22:54;30.30;63.00
12811;DHT22;6470;47.654;7.896;2023-06-14T12:25:35;29.80;62.90
12811;DHT22;6470;47.654;7.896;2023-06-14T12:28:07;30.10;63.50
12811;DHT22;6470;47.654;7.896;2023-06-14T12:30:33;29.40;63.20
12811;DHT22;6470;47.654;7.896;2023-06-14T12:33:00;29.30;61.40
12811;DHT22;6470;47.654;7.896;2023-06-14T12:35:26;30.00;65.30
12811;DHT22;6470;47.654;7.896;2023-06-14T12:37:52;29.30;63.50
12811;DHT22;6470;47.654;7.896;2023-06-14T12:40:18;30.00;63.80
12811;DHT22;6470;47.654;7.896;2023-06-14T12:42:44;30.00;63.20
12811;DHT22;6470;47.654;7.896;2023-06-14T12:45:12;31.00;64.80
12811;DHT22;6470;47.654;7.896;2023-06-14T12:47:39;30.60;64.50
12811;DHT22;6470;47.654;7.896;2023-06-14T12:50:05;30.70;63.80
12811;DHT22;6470;47.654;7.896;2023-06-14T12:52:31;32.00;64.90
12811;DHT22;6470;47.654;7.896;2023-06-14T12:54:57;31.30;64.60
12811;DHT22;6470;47.654;7.896;2023-06-14T12:57:23;30.10;63.30
12811;DHT22;6470;47.654;7.896;2023-06-14T12:59:49;30.30;64.00
12811;DHT22;6470;47.654;7.896;2023-06-14T13:02:16;29.70;65.90
12811;DHT22;6470;47.654;7.896;2023-06-14T13:04:43;30.60;64.40
12811;DHT22;6470;47.654;7.896;2023-06-14T13:07:09;30.10;63.70
12811;DHT22;6470;47.654;7.896;2023-06-14T13:09:36;30.10;64.80
12811;DHT22;6470;47.654;7.896;2023-06-14T13:12:02;30.10;63.20
12811;DHT22;6470;47.654;7.896;2023-06-14T13:14:28;30.80;64.00
12811;DHT22;6470;47.654;7.896;2023-06-14T13:16:54;30.30;61.50
12811;DHT22;6470;47.654;7.896;2023-06-14T13:19:20;30.30;63.20
12811;DHT22;6470;47.654;7.896;2023-06-14T13:21:47;30.40;62.40
12811;DHT22;6470;47.654;7.896;2023-06-14T13:24:13;30.70;63.10
12811;DHT22;6470;47.654;7.896;2023-06-14T13:26:39;30.60;63.00
12811;DHT22;6470;47.654;7.896;2023-06-14T13:29:04;30.00;62.50
12811;DHT22;6470;47.654;7.896;2023-06-14T13:31:30;30.00;63.20
12811;DHT22;6470;47.654;7.896;2023-06-14T13:33:56;30.20;63.70
12811;DHT22;6470;47.654;7.896;2023-06-14T13:36:22;31.40;64.00
12811;DHT22;6470;47.654;7.896;2023-06-14T13:38:47;31.40;62.20
12811;DHT22;6470;47.654;7.896;2023-06-14T13:41:13;31.70;64.70
12811;DHT22;6470;47.654;7.896;2023-06-14T13:43:39;32.30;63.40
12811;DHT22;6470;47.654;7.896;2023-06-14T13:46:04;31.10;62.00
12811;DHT22;6470;47.654;7.896;2023-06-14T13:48:30;31.50;63.80
12811;DHT22;6470;47.654;7.896;2023-06-14T13:50:56;32.00;63.50
12811;DHT22;6470;47.654;7.896;2023-06-14T13:53:22;32.80;64.30
12811;DHT22;6470;47.654;7.896;2023-06-14T13:55:48;32.50;62.60
12811;DHT22;6470;47.654;7.896;2023-06-14T13:58:14;31.30;60.80
12811;DHT22;6470;47.654;7.896;2023-06-14T14:00:40;31.70;61.50
12811;DHT22;6470;47.654;7.896;2023-06-14T14:03:06;31.50;62.20
12811;DHT22;6470;47.654;7.896;2023-06-14T14:05:32;31.00;59.50
12811;DHT22;6470;47.654;7.896;2023-06-14T14:07:58;31.10;60.90
12811;DHT22;6470;47.654;7.896;2023-06-14T14:10:26;31.90;60.30
12811;DHT22;6470;47.654;7.896;2023-06-14T14:12:52;30.20;59.70
12811;DHT22;6470;47.654;7.896;2023-06-14T14:15:19;30.20;60.90
12811;DHT22;6470;47.654;7.896;2023-06-14T14:17:44;29.70;61.60
12811;DHT22;6470;47.654;7.896;2023-06-14T14:20:10;29.80;60.40
12811;DHT22;6470;47.654;7.896;2023-06-14T14:22:42;29.80;61.40
12811;DHT22;6470;47.654;7.896;2023-06-14T14:25:08;30.30;62.50
12811;DHT22;6470;47.654;7.896;2023-06-14T14:27:34;30.30;63.40
12811;DHT22;6470;47.654;7.896;2023-06-14T14:30:00;31.90;61.80
12811;DHT22;6470;47.654;7.896;2023-06-14T14:32:25;30.90;64.70
12811;DHT22;6470;47.654;7.896;2023-06-14T14:34:51;29.60;62.60
12811;DHT22;6470;47.654;7.896;2023-06-14T14:37:17;29.80;63.90
12811;DHT22;6470;47.654;7.896;2023-06-14T14:39:44;29.30;63.90
12811;DHT22;6470;47.654;7.896;2023-06-14T14:42:11;29.90;67.10
12811;DHT22;6470;47.654;7.896;2023-06-14T14:47:12;29.00;66.50
12811;DHT22;6470;47.654;7.896;2023-06-14T14:49:37;29.70;67.20
12811;DHT22;6470;47.654;7.896;2023-06-14T14:52:03;29.00;67.00
12811;DHT22;6470;47.654;7.896;2023-06-14T14:54:29;29.30;66.70
12811;DHT22;6470;47.654;7.896;2023-06-14T14:56:55;29.50;67.10
12811;DHT22;6470;47.654;7.896;2023-06-14T14:59:20;30.30;65.80
12811;DHT22;6470;47.654;7.896;2023-06-14T15:01:47;29.40;64.30
12811;DHT22;6470;47.654;7.896;2023-06-14T15:04:13;29.70;65.10
12811;DHT22;6470;47.654;7.896;2023-06-14T15:06:39;30.60;64.70
12811;DHT22;6470;47.654;7.896;2023-06-14T15:09:06;30.70;64.60
12811;DHT22;6470;47.654;7.896;2023-06-14T15:11:31;30.80;64.60
12811;DHT22;6470;47.654;7.896;2023-06-14T15:13:57;30.00;64.60
12811;DHT22;6470;47.654;7.896;2023-06-14T15:16:23;30.00;64.20
12811;DHT22;6470;47.654;7.896;2023-06-14T15:18:49;30.30;65.20
12811;DHT22;6470;47.654;7.896;2023-06-14T15:21:15;31.10;63.60
12811;DHT22;6470;47.654;7.896;2023-06-14T15:23:40;28.80;63.60
12811;DHT22;6470;47.654;7.896;2023-06-14T15:26:06;30.90;65.60
12811;DHT22;6470;47.654;7.896;2023-06-14T15:28:34;30.80;67.70
12811;DHT22;6470;47.654;7.896;2023-06-14T15:31:00;30.10;68.80
12811;DHT22;6470;47.654;7.896;2023-06-14T15:33:26;30.50;68.30
12811;DHT22;6470;47.654;7.896;2023-06-14T15:35:55;30.10;66.10
12811;DHT22;6470;47.654;7.896;2023-06-14T15:38:21;29.30;66.20
12811;DHT22;6470;47.654;7.896;2023-06-14T15:40:48;29.90;68.90
12811;DHT22;6470;47.654;7.896;2023-06-14T15:43:14;29.70;68.10
12811;DHT22;6470;47.654;7.896;2023-06-14T15:45:39;29.80;67.70
12811;DHT22;6470;47.654;7.896;2023-06-14T15:48:06;29.10;68.20
12811;DHT22;6470;47.654;7.896;2023-06-14T15:50:31;28.90;68.20
12811;DHT22;6470;47.654;7.896;2023-06-14T15:52:57;26.20;67.10
12811;DHT22;6470;47.654;7.896;2023-06-14T15:55:23;26.20;66.40
12811;DHT22;6470;47.654;7.896;2023-06-14T15:57:48;29.40;68.80
12811;DHT22;6470;47.654;7.896;2023-06-14T16:00:15;28.60;68.20
12811;DHT22;6470;47.654;7.896;2023-06-14T16:02:41;27.80;68.70
12811;DHT22;6470;47.654;7.896;2023-06-14T16:05:06;29.30;69.30
12811;DHT22;6470;47.654;7.896;2023-06-14T16:07:32;28.90;69.10
12811;DHT22;6470;47.654;7.896;2023-06-14T16:09:58;28.30;67.40
12811;DHT22;6470;47.654;7.896;2023-06-14T16:12:24;27.90;68.90
12811;DHT22;6470;47.654;7.896;2023-06-14T16:14:49;27.20;70.10
12811;DHT22;6470;47.654;7.896;2023-06-14T16:17:15;27.50;70.50
12811;DHT22;6470;47.654;7.896;2023-06-14T16:19:41;28.50;70.70
12811;DHT22;6470;47.654;7.896;2023-06-14T16:22:06;28.70;70.30
12811;DHT22;6470;47.654;7.896;2023-06-14T16:24:32;27.90;69.80
12811;DHT22;6470;47.654;7.896;2023-06-14T16:26:58;27.40;70.20
12811;DHT22;6470;47.654;7.896;2023-06-14T16:29:24;27.70;70.20
12811;DHT22;6470;47.654;7.896;2023-06-14T16:31:49;27.50;70.40
12811;DHT22;6470;47.654;7.896;2023-06-14T16:34:15;27.00;70.30
12811;DHT22;6470;47.654;7.896;2023-06-14T16:36:42;27.80;70.30
12811;DHT22;6470;47.654;7.896;2023-06-14T16:39:08;27.30;70.90
12811;DHT22;6470;47.654;7.896;2023-06-14T16:41:34;27.50;71.00
12811;DHT22;6470;47.654;7.896;2023-06-14T16:43:59;27.90;72.30
12811;DHT22;6470;47.654;7.896;2023-06-14T16:46:29;28.20;71.10
12811;DHT22;6470;47.654;7.896;2023-06-14T16:48:56;27.10;70.10
12811;DHT22;6470;47.654;7.896;2023-06-14T16:53:49;28.20;72.60
12811;DHT22;6470;47.654;7.896;2023-06-14T16:56:19;28.10;72.60
12811;DHT22;6470;47.654;7.896;2023-06-14T16:58:45;27.10;71.80
12811;DHT22;6470;47.654;7.896;2023-06-14T17:01:12;26.40;71.90
12811;DHT22;6470;47.654;7.896;2023-06-14T17:03:38;25.70;71.50
12811;DHT22;6470;47.654;7.896;2023-06-14T17:06:04;26.50;73.40
12811;DHT22;6470;47.654;7.896;2023-06-14T17:08:32;26.90;73.10
12811;DHT22;6470;47.654;7.896;2023-06-14T17:10:57;25.90;73.10
12811;DHT22;6470;47.654;7.896;2023-06-14T17:13:24;26.00;73.90